Time;durP1;ratioP1;P1;durP2;ratioP2;P2;SDS_P1;SDS_P2;PMS_P1;PMS_P2;Temp;Humidity;BMP_temperature;BMP_pressure;BME280_temperature;BME280_humidity;BME280_pressure;Samples;Min_cycle;Max_cycle;Signal;HPM_P1;HPM_P2
2023/06/27 00:00:42;;;;;;;11.10;2.47;;;;;;;19.27;74.40;99207.63;1802649;79;21283;-80
2023/06/27 00:03:51;;;;;;;8.58;2.00;;;;;;;19.31;74.22;99208.78;1802556;79;21834;-80
2023/06/27 00:06:55;;;;;;;8.05;2.20;;;;;;;19.37;74.01;99201.64;1801210;79;21321;-80
2023/06/27 00:13:16;;;;;;;16.62;2.50;;;;;;;19.21;74.52;99201.75;1801037;79;21307;-80
2023/06/27 00:16:24;;;;;;;13.62;2.05;;;;;;;19.30;74.23;99205.73;1801292;79;21968;-81
2023/06/27 00:19:31;;;;;;;4.78;2.00;;;;;;;19.10;74.60;99196.09;1801040;79;21841;-79
2023/06/27 00:22:39;;;;;;;7.58;2.72;;;;;;;19.15;74.51;99203.63;1800998;79;21291;-80
2023/06/27 00:25:44;;;;;;;7.30;2.85;;;;;;;19.07;74.54;99198.53;1802291;79;21327;-79
2023/06/27 00:28:51;;;;;;;11.08;2.22;;;;;;;19.13;74.17;99197.48;1806882;79;21310;-79
2023/06/27 00:31:50;;;;;;;7.97;2.02;;;;;;;19.06;74.24;99192.16;1816787;79;21286;-79
2023/06/27 00:34:56;;;;;;;9.18;2.25;;;;;;;19.11;74.00;99190.83;1816846;79;21266;-79
2023/06/27 00:38:02;;;;;;;12.53;2.65;;;;;;;19.11;73.78;99194.98;1816806;79;21282;-80
2023/06/27 00:41:07;;;;;;;16.95;2.60;;;;;;;18.83;74.98;99199.34;1816818;79;21286;-80
2023/06/27 00:44:15;;;;;;;19.17;2.47;;;;;;;18.87;74.74;99201.34;1816744;79;21266;-80
2023/06/27 00:47:22;;;;;;;5.05;2.30;;;;;;;18.92;74.43;99195.03;1815562;79;21306;-79
2023/06/27 00:50:30;;;;;;;7.60;2.40;;;;;;;18.89;74.32;99192.21;1815045;79;21281;-80
2023/06/27 00:53:36;;;;;;;;;;;;;;;18.92;74.11;99192.81;1819513;79;21839;-79
2023/06/27 00:56:41;;;;;;;7.10;2.45;;;;;;;18.93;73.81;99187.00;1816193;79;20692;-80
2023/06/27 00:59:47;;;;;;;12.15;2.45;;;;;;;18.83;74.14;99182.17;1815289;79;21294;-80
2023/06/27 01:02:47;;;;;;;7.17;2.70;;;;;;;18.88;73.99;99191.09;1816914;79;21275;-80
2023/06/27 01:05:54;;;;;;;6.87;2.22;;;;;;;19.04;73.31;99194.33;1817031;79;21275;-79
2023/06/27 01:09:11;;;;;;;6.62;2.25;;;;;;;19.02;73.22;99190.99;1817007;79;21297;-79
2023/06/27 01:12:50;;;;;;;10.30;2.42;;;;;;;18.92;73.57;99194.20;1816952;79;21274;-79
2023/06/27 01:15:56;;;;;;;8.00;2.22;;;;;;;18.85;73.63;99189.66;1815959;79;21325;-79
2023/06/27 01:19:02;;;;;;;6.22;1.80;;;;;;;18.96;73.35;99190.65;1809956;79;21876;-79
2023/06/27 01:22:17;;;;;;;11.90;2.98;;;;;;;18.83;73.72;99191.03;1806361;79;21278;-80
2023/06/27 01:25:23;;;;;;;13.05;2.40;;;;;;;18.71;74.11;99183.38;1806332;79;21287;-79
2023/06/27 01:28:30;;;;;;;17.50;2.58;;;;;;;18.78;73.89;99178.50;1806362;79;21283;-79
2023/06/27 01:31:44;;;;;;;7.60;2.37;;;;;;;18.79;73.72;99182.39;1804696;79;21311;-79
2023/06/27 01:35:04;;;;;;;13.48;2.27;;;;;;;18.73;73.77;99190.35;1805198;79;21314;-79
2023/06/27 01:38:14;;;;;;;13.75;2.22;;;;;;;18.83;73.50;99198.79;1805022;79;21298;-80
2023/06/27 01:41:23;;;;;;;12.15;2.50;;;;;;;18.77;73.50;99192.91;1806316;79;21342;-79
2023/06/27 01:44:29;;;;;;;14.85;2.50;;;;;;;18.78;73.48;99203.44;1806262;79;21314;-79
2023/06/27 01:47:34;;;;;;;9.48;1.98;;;;;;;18.74;73.62;99201.72;1805498;79;21306;-80
2023/06/27 01:50:40;;;;;;;10.08;2.65;;;;;;;18.70;73.80;99196.95;1805981;79;21838;-79
2023/06/27 01:53:45;;;;;;;7.65;2.20;;;;;;;18.81;73.61;99193.20;1804775;79;21901;-80
2023/06/27 01:56:51;;;;;;;14.18;2.52;;;;;;;18.78;73.82;99196.51;1804806;79;21314;-80
2023/06/27 01:59:56;;;;;;;15.90;3.30;;;;;;;18.93;73.98;99193.92;1806333;79;21287;-79
2023/06/27 02:03:08;;;;;;;13.03;2.30;;;;;;;19.39;73.55;99201.40;1806330;79;21319;-80
2023/06/27 02:06:15;;;;;;;14.70;2.33;;;;;;;19.82;72.92;99204.62;1806190;79;21279;-79
2023/06/27 02:09:22;;;;;;;14.80;2.33;;;;;;;20.26;72.20;99207.75;1804866;79;21223;-80
2023/06/27 02:12:29;;;;;;;12.53;2.05;;;;;;;20.90;70.34;99204.85;1806279;79;21291;-80
2023/06/27 02:15:37;;;;;;;9.15;1.70;;;;;;;21.47;68.15;99210.92;1805512;79;21310;-80
2023/06/27 02:18:42;;;;;;;10.45;1.98;;;;;;;21.92;66.40;99217.13;1805011;79;21334;-79
2023/06/27 02:21:49;;;;;;;11.25;2.27;;;;;;;22.16;64.56;99220.77;1806158;79;21274;-80
2023/06/27 02:24:56;;;;;;;11.83;1.87;;;;;;;22.39;63.33;99216.02;1804795;79;21306;-80
2023/06/27 02:28:03;;;;;;;2.42;1.25;;;;;;;22.56;61.90;99220.47;1804801;79;21314;-80
2023/06/27 02:31:10;;;;;;;13.70;2.00;;;;;;;22.73;61.29;99225.17;1801506;79;21335;-80
2023/06/27 02:34:16;;;;;;;10.88;1.80;;;;;;;22.80;61.02;99220.12;1797184;80;21299;-81
2023/06/27 02:37:22;;;;;;;14.73;2.10;;;;;;;23.06;60.08;99220.09;1797501;80;21311;-80
2023/06/27 02:40:30;;;;;;;6.17;1.80;;;;;;;23.40;58.80;99226.62;1797487;80;21327;-80
2023/06/27 02:43:37;;;;;;;10.30;1.90;;;;;;;23.74;57.02;99232.04;1797536;80;21850;-81
2023/06/27 02:46:43;;;;;;;8.28;1.90;;;;;;;24.02;56.15;99237.43;1797552;80;21296;-80
2023/06/27 02:49:51;;;;;;;7.28;1.72;;;;;;;24.18;54.94;99239.83;1796989;80;21318;-81
2023/06/27 02:52:58;;;;;;;6.75;1.52;;;;;;;24.41;54.20;99248.58;1797485;80;21284;-81
2023/06/27 02:56:04;;;;;;;4.47;1.70;;;;;;;24.50;52.87;99250.19;1797376;80;21295;-81
2023/06/27 02:59:11;;;;;;;4.70;1.50;;;;;;;24.56;52.83;99247.60;1796352;80;21267;-81
2023/06/27 03:02:18;;;;;;;6.03;1.45;;;;;;;24.58;52.24;99249.56;1797516;80;21314;-81
2023/06/27 03:05:18;;;;;;;5.28;1.75;;;;;;;24.49;52.11;99252.15;1796904;80;21295;-80
2023/06/27 03:08:25;;;;;;;5.30;1.70;;;;;;;23.98;53.05;99245.55;1796015;80;21338;-80
2023/06/27 03:11:30;;;;;;;6.62;2.45;;;;;;;23.57;54.38;99243.53;1796047;80;21302;-80
2023/06/27 03:14:39;;;;;;;8.85;1.98;;;;;;;23.54;55.73;99246.92;1796059;80;21310;-81
2023/06/27 03:17:46;;;;;;;9.53;1.75;;;;;;;23.68;55.22;99242.41;1797468;80;21287;-81
2023/06/27 03:20:53;;;;;;;9.78;2.22;;;;;;;23.78;55.22;99244.30;1796604;80;21320;-80
2023/06/27 03:23:59;;;;;;;6.00;2.00;;;;;;;24.03;54.50;99237.69;1797646;80;22430;-80
2023/06/27 03:27:06;;;;;;;3.92;1.70;;;;;;;24.14;54.28;99247.12;1797576;80;21294;-80
2023/06/27 03:30:14;;;;;;;7.33;1.67;;;;;;;23.98;54.24;99240.79;1797551;80;21993;-80
2023/06/27 03:33:19;;;;;;;6.60;1.90;;;;;;;23.67;54.49;99244.93;1803497;79;21310;-80
2023/06/27 03:36:28;;;;;;;4.75;1.82;;;;;;;23.49;54.67;99240.81;1791872;79;21318;-81
2023/06/27 03:39:30;;;;;;;4.42;1.60;;;;;;;23.51;55.06;99243.30;1779057;80;21327;-81
2023/06/27 03:42:37;;;;;;;8.20;1.57;;;;;;;23.57;54.90;99242.14;1780052;80;21315;-80
2023/06/27 03:45:43;;;;;;;3.55;1.72;;;;;;;23.94;54.21;99238.30;1779783;80;21294;-81
2023/06/27 03:48:53;;;;;;;4.30;1.30;;;;;;;24.29;52.98;99246.72;1779598;80;21335;-80
2023/06/27 03:51:51;;;;;;;10.05;1.37;;;;;;;24.38;53.15;99243.60;1778630;80;21361;-80
2023/06/27 03:54:56;;;;;;;3.87;1.35;;;;;;;24.47;52.81;99245.47;1779857;80;21315;-80
2023/06/27 03:58:03;;;;;;;5.47;1.45;;;;;;;24.66;51.00;99253.95;1779881;80;21287;-81
2023/06/27 04:01:09;;;;;;;6.37;1.40;;;;;;;24.67;51.10;99245.83;1780162;80;21299;-80
2023/06/27 04:04:17;;;;;;;1.35;1.10;;;;;;;24.44;51.78;99250.80;1780078;80;21287;-80
2023/06/27 04:07:23;;;;;;;5.05;1.60;;;;;;;24.51;51.18;99249.88;1778584;80;21311;-80
2023/06/27 04:10:30;;;;;;;3.12;1.30;;;;;;;24.32;51.11;99251.14;1778979;80;21328;-80
2023/06/27 04:13:37;;;;;;;1.02;0.93;;;;;;;24.06;51.12;99246.33;1780874;80;21857;-80
2023/06/27 04:16:44;;;;;;;3.02;1.42;;;;;;;23.81;51.83;99245.96;1780920;80;21299;-79
2023/06/27 04:19:50;;;;;;;1.35;1.10;;;;;;;23.50;53.01;99243.86;1779091;80;21335;-80
2023/06/27 04:22:56;;;;;;;4.90;1.27;;;;;;;23.24;53.06;99254.86;1763058;81;21874;-80
2023/06/27 04:26:14;;;;;;;6.22;1.62;;;;;;;22.90;54.55;99245.77;1764204;81;21862;-80
2023/06/27 04:29:16;;;;;;;8.20;1.50;;;;;;;22.82;55.84;99253.28;1776346;80;21326;-79
2023/06/27 04:32:22;;;;;;;3.17;1.72;;;;;;;22.84;56.14;99252.45;1748005;82;21286;-80
2023/06/27 04:35:32;;;;;;;3.33;1.60;;;;;;;22.70;55.93;99252.20;1718698;82;21295;-79
2023/06/27 04:38:38;;;;;;;3.20;2.00;;;;;;;22.74;56.52;99260.84;1773648;81;21344;-80
2023/06/27 04:41:45;;;;;;;7.40;2.08;;;;;;;22.81;56.37;99259.98;1772279;81;21316;-80
2023/06/27 04:44:51;;;;;;;13.55;2.05;;;;;;;23.00;56.01;99261.64;1772315;81;21321;-79
2023/06/27 04:47:57;;;;;;;4.15;1.72;;;;;;;23.02;55.30;99257.46;1771909;81;21321;-79
2023/06/27 04:51:04;;;;;;;3.83;1.75;;;;;;;23.15;55.56;99264.40;1769621;81;21856;-80
2023/06/27 04:54:10;;;;;;;2.00;1.45;;;;;;;23.46;53.83;99267.88;1773831;81;21867;-79
2023/06/27 04:57:16;;;;;;;4.10;1.80;;;;;;;23.57;52.78;99266.73;1773660;81;21325;-80
2023/06/27 05:00:23;;;;;;;9.33;1.60;;;;;;;23.68;52.90;99270.32;1773227;81;21301;-80
2023/06/27 05:03:30;;;;;;;3.83;1.42;;;;;;;24.20;51.10;99273.88;1774224;81;21653;-79
2023/06/27 05:06:36;;;;;;;2.70;1.30;;;;;;;24.13;49.35;99271.13;1772688;81;21531;-80
2023/06/27 05:09:42;;;;;;;4.12;1.40;;;;;;;24.12;49.67;99263.88;1773935;81;21329;-80
2023/06/27 05:12:43;;;;;;;3.72;1.27;;;;;;;24.11;50.32;99260.83;1772684;80;21179;-79
2023/06/27 05:15:35;;;;;;;1.17;1.00;;;;;;;24.21;49.23;99249.00;1772354;81;21330;-80
2023/06/27 05:18:23;;;;;;;1.57;1.32;;;;;;;24.11;49.36;99250.48;1771582;81;21959;-81
2023/06/27 05:21:16;;;;;;;1.20;1.00;;;;;;;23.90;50.40;99264.30;1749073;81;21312;-80
2023/06/27 05:24:22;;;;;;;2.85;1.35;;;;;;;23.95;50.19;99260.94;1751063;81;21307;-80
2023/06/27 05:27:27;;;;;;;5.55;1.20;;;;;;;23.83;49.83;99250.67;1753893;81;21334;-81
2023/06/27 05:30:34;;;;;;;1.30;1.20;;;;;;;23.97;50.25;99259.24;1754392;81;22685;-80
2023/06/27 05:33:41;;;;;;;2.42;1.32;;;;;;;24.32;49.61;99265.67;1754006;81;21881;-80
2023/06/27 05:36:47;;;;;;;3.47;0.90;;;;;;;24.16;49.67;99263.01;1755950;81;21661;-81
2023/06/27 05:39:52;;;;;;;1.52;1.17;;;;;;;24.10;49.27;99271.16;1735169;81;21310;-80
2023/06/27 05:42:59;;;;;;;2.37;1.12;;;;;;;24.21;48.37;99256.55;1728276;83;21310;-80
2023/06/27 05:46:06;;;;;;;1.65;0.90;;;;;;;24.10;48.82;99253.02;1734874;81;21315;-80
2023/06/27 05:49:11;;;;;;;2.80;1.62;;;;;;;23.90;50.76;99262.37;1737168;81;21326;-81
2023/06/27 05:52:18;;;;;;;3.27;1.72;;;;;;;23.74;51.44;99260.78;1754647;81;21933;-80
2023/06/27 05:55:23;;;;;;;2.02;1.75;;;;;;;23.75;51.99;99263.02;1738755;82;21320;-80
2023/06/27 05:58:22;;;;;;;1.95;1.40;;;;;;;23.77;52.18;99276.14;1741289;82;21883;-81
2023/06/27 06:01:28;;;;;;;1.92;1.65;;;;;;;23.92;51.18;99272.68;1737200;82;22618;-80
2023/06/27 06:04:34;;;;;;;3.85;1.60;;;;;;;23.90;51.68;99269.89;1741345;82;21311;-81
2023/06/27 06:07:39;;;;;;;2.05;1.55;;;;;;;24.04;50.90;99266.72;1738956;82;21935;-80
2023/06/27 06:10:45;;;;;;;7.95;1.70;;;;;;;24.52;49.93;99263.32;1739033;82;21373;-81
2023/06/27 06:13:54;;;;;;;6.40;1.77;;;;;;;24.58;49.93;99265.77;1738849;82;21310;-81
2023/06/27 06:17:01;;;;;;;3.25;2.25;;;;;;;24.58;49.79;99257.95;1739245;82;21330;-82
2023/06/27 06:20:10;;;;;;;6.15;1.75;;;;;;;24.65;49.62;99264.84;1704003;84;21327;-81
2023/06/27 06:23:16;;;;;;;2.33;1.57;;;;;;;24.87;47.50;99263.52;1705805;84;21880;-81
2023/06/27 06:26:21;;;;;;;1.90;1.67;;;;;;;24.95;47.96;99267.08;1702788;84;21907;-80
2023/06/27 06:29:27;;;;;;;2.65;1.67;;;;;;;25.05;47.36;99263.33;1710317;84;21321;-80
2023/06/27 06:32:32;;;;;;;2.47;1.25;;;;;;;25.26;47.37;99254.15;1709645;84;21990;-81
2023/06/27 06:35:38;;;;;;;2.55;1.40;;;;;;;25.32;47.22;99268.37;1709754;84;21383;-80
2023/06/27 06:38:44;;;;;;;2.00;1.50;;;;;;;25.07;47.12;99261.92;1710961;84;21876;-81
2023/06/27 06:41:51;;;;;;;3.37;1.10;;;;;;;24.95;46.94;99253.09;1711023;84;21343;-81
2023/06/27 06:44:58;;;;;;;1.72;1.17;;;;;;;25.06;46.35;99255.20;1711429;84;21312;-81
2023/06/27 06:48:04;;;;;;;1.50;1.32;;;;;;;25.24;46.49;99258.66;1710779;84;22541;-81
2023/06/27 06:51:09;;;;;;;4.00;2.08;;;;;;;25.28;45.71;99268.70;1710326;83;21380;-81
2023/06/27 06:54:08;;;;;;;2.45;1.30;;;;;;;25.23;46.31;99263.98;1707337;83;21887;-80
2023/06/27 06:57:01;;;;;;;1.75;1.27;;;;;;;25.38;46.82;99253.17;1704428;83;21891;-81
2023/06/27 06:59:47;;;;;;;5.40;1.50;;;;;;;25.56;44.94;99243.97;1711131;82;21340;-81
2023/06/27 07:02:52;;;;;;;1.67;1.30;;;;;;;25.68;43.80;99256.94;1706025;83;21348;-81
2023/06/27 07:05:57;;;;;;;2.65;1.20;;;;;;;25.65;44.90;99254.77;1702598;84;21313;-81
2023/06/27 07:09:04;;;;;;;8.35;1.52;;;;;;;25.61;45.00;99243.89;1708624;84;21975;-80
2023/06/27 07:12:12;;;;;;;1.80;1.10;;;;;;;25.63;45.77;99242.19;1733719;82;21340;-81
2023/06/27 07:15:18;;;;;;;1.50;1.25;;;;;;;25.64;45.21;99241.05;1721106;82;21331;-81
2023/06/27 07:18:17;;;;;;;2.70;1.35;;;;;;;25.67;45.76;99245.48;1708650;84;21344;-80
2023/06/27 07:21:09;;;;;;;1.77;1.02;;;;;;;25.85;44.78;99241.06;1710005;84;21443;-81
2023/06/27 07:24:16;;;;;;;2.10;1.20;;;;;;;25.99;42.98;99242.53;1710238;84;21969;-80
2023/06/27 07:27:22;;;;;;;4.15;1.30;;;;;;;26.07;43.44;99244.66;1714732;83;21306;-80
2023/06/27 07:30:28;;;;;;;2.67;1.42;;;;;;;26.10;43.26;99249.62;1713238;83;21315;-81
2023/06/27 07:33:33;;;;;;;2.58;1.40;;;;;;;26.13;43.42;99248.20;1712193;83;21269;-81
2023/06/27 07:36:39;;;;;;;2.33;1.67;;;;;;;26.17;43.10;99245.89;1734462;82;21347;-80
2023/06/27 07:39:45;;;;;;;1.67;1.52;;;;;;;26.11;44.22;99260.27;1737138;82;21304;-81
2023/06/27 07:42:49;;;;;;;1.30;1.20;;;;;;;26.13;44.27;99256.61;1718098;82;21341;-81
2023/06/27 07:45:55;;;;;;;1.92;1.20;;;;;;;26.35;43.44;99258.75;1704691;84;21388;-80
2023/06/27 07:49:03;;;;;;;1.75;1.30;;;;;;;26.37;41.86;99257.89;1717746;83;21362;-80
2023/06/27 07:52:09;;;;;;;3.55;1.70;;;;;;;26.61;42.87;99259.19;1718704;83;22008;-80
2023/06/27 07:55:16;;;;;;;2.30;1.40;;;;;;;26.66;42.71;99257.12;1729308;82;21285;-81
2023/06/27 07:58:21;;;;;;;2.30;1.50;;;;;;;26.63;43.24;99252.15;1750235;82;21301;-80
2023/06/27 08:01:27;;;;;;;2.45;1.60;;;;;;;26.66;43.37;99242.27;1750159;82;21851;-80
2023/06/27 08:04:34;;;;;;;1.65;1.55;;;;;;;26.78;42.99;99253.01;1748994;82;21906;-80
2023/06/27 08:07:39;;;;;;;1.72;1.60;;;;;;;26.89;41.95;99250.27;1750227;82;21297;-81
2023/06/27 08:10:40;;;;;;;2.30;1.40;;;;;;;26.75;42.02;99248.83;1750288;82;21361;-81
2023/06/27 08:13:47;;;;;;;3.80;1.35;;;;;;;26.74;42.40;99252.21;1748953;82;21245;-81
2023/06/27 08:16:53;;;;;;;2.17;1.40;;;;;;;26.87;42.89;99252.55;1750516;82;21871;-79
2023/06/27 08:20:00;;;;;;;2.65;1.10;;;;;;;27.01;41.37;99259.84;1749018;82;21907;-80
2023/06/27 08:23:05;;;;;;;1.47;1.15;;;;;;;27.27;40.11;99246.72;1748790;82;21840;-80
2023/06/27 08:26:10;;;;;;;4.15;1.22;;;;;;;27.29;39.57;99257.62;1750238;82;21332;-81
2023/06/27 08:29:17;;;;;;;3.58;1.45;;;;;;;27.20;40.64;99248.55;1750185;82;21304;-80
2023/06/27 08:32:23;;;;;;;6.85;1.60;;;;;;;27.39;40.93;99254.63;1749959;82;21595;-80
2023/06/27 08:35:29;;;;;;;1.40;1.30;;;;;;;27.48;40.54;99247.14;1749013;82;21332;-81
2023/06/27 08:38:36;;;;;;;9.48;1.75;;;;;;;27.47;40.21;99242.64;1750757;80;21364;-81
2023/06/27 08:41:41;;;;;;;7.83;1.50;;;;;;;27.44;40.19;99244.12;1744240;82;21341;-81
2023/06/27 08:44:46;;;;;;;3.92;1.30;;;;;;;27.28;40.27;99245.56;1733611;82;21854;-81
2023/06/27 08:47:53;;;;;;;3.20;1.42;;;;;;;27.28;40.53;99244.74;1751829;82;21657;-81
2023/06/27 08:51:01;;;;;;;2.92;1.50;;;;;;;27.38;40.59;99243.95;1707626;83;21304;-81
2023/06/27 08:54:14;;;;;;;6.10;1.22;;;;;;;27.35;40.91;99240.95;1707774;84;21330;-80
2023/06/27 08:57:21;;;;;;;1.32;1.17;;;;;;;27.47;40.02;99238.43;1709230;84;21284;-80
2023/06/27 09:00:29;;;;;;;6.08;1.50;;;;;;;27.64;40.67;99244.81;1709336;84;21308;-81
2023/06/27 09:03:35;;;;;;;1.82;1.22;;;;;;;27.72;39.74;99241.30;1708691;83;21311;-81
2023/06/27 09:06:41;;;;;;;5.60;1.45;;;;;;;27.68;39.83;99240.23;1764282;81;21209;-81
2023/06/27 09:09:47;;;;;;;1.50;1.05;;;;;;;27.67;39.82;99247.00;1764194;81;21318;-81
2023/06/27 09:12:57;;;;;;;3.42;1.60;;;;;;;27.61;38.89;99246.26;1763190;81;21153;-81
2023/06/27 09:15:56;;;;;;;5.12;1.30;;;;;;;27.53;38.94;99249.83;1768909;79;21285;-81
2023/06/27 09:19:02;;;;;;;2.27;1.50;;;;;;;27.57;39.01;99238.77;1753957;81;21276;-81
2023/06/27 09:22:02;;;;;;;1.87;1.27;;;;;;;27.53;38.69;99259.66;1794735;79;22650;-81
2023/06/27 09:25:23;;;;;;;3.15;1.37;;;;;;;27.81;39.47;99250.64;1743259;81;21312;-81
2023/06/27 09:28:29;;;;;;;2.72;1.47;;;;;;;27.90;39.50;99254.36;1785589;79;21620;-81
2023/06/27 09:31:36;;;;;;;7.42;1.55;;;;;;;27.87;38.66;99249.37;1787449;79;21264;-81
2023/06/27 09:34:42;;;;;;;1.65;1.07;;;;;;;27.80;37.19;99248.13;1801600;79;21303;-80
2023/06/27 09:37:48;;;;;;;2.52;1.55;;;;;;;27.57;37.11;99268.27;1764531;81;21645;-81
2023/06/27 09:40:55;;;;;;;2.62;1.32;;;;;;;27.51;38.28;99233.85;1780843;80;21347;-80
2023/06/27 09:44:00;;;;;;;2.30;1.37;;;;;;;27.47;38.50;99262.30;1749654;82;21968;-81
2023/06/27 09:47:06;;;;;;;3.22;1.52;;;;;;;27.48;39.68;99253.58;1783795;80;21319;-81
2023/06/27 09:50:14;;;;;;;1.45;1.10;;;;;;;27.56;38.55;99251.99;1771768;80;21367;-81
2023/06/27 09:53:19;;;;;;;5.80;1.42;;;;;;;27.76;38.26;99253.57;1715389;80;21311;-81
2023/06/27 09:56:25;;;;;;;2.60;1.30;;;;;;;27.95;38.65;99259.86;1733819;83;21302;-80
2023/06/27 09:59:32;;;;;;;3.52;1.35;;;;;;;28.05;37.88;99264.98;1735442;81;21885;-81
2023/06/27 10:02:39;;;;;;;1.98;1.42;;;;;;;28.06;37.10;99260.45;1770544;81;21299;-82
2023/06/27 10:05:46;;;;;;;3.27;1.40;;;;;;;28.09;37.62;99258.42;1752645;82;21319;-83
2023/06/27 10:08:53;;;;;;;4.92;2.33;;;;;;;28.00;37.15;99263.13;1740724;82;21335;-81
2023/06/27 10:12:01;;;;;;;5.03;1.52;;;;;;;28.07;37.11;99256.48;1745847;82;21858;-81
2023/06/27 10:15:10;;;;;;;4.15;1.40;;;;;;;28.07;36.85;99258.46;1740360;82;22327;-80
2023/06/27 10:18:16;;;;;;;7.45;1.42;;;;;;;28.17;37.81;99267.47;1758520;81;21241;-81
2023/06/27 10:21:22;;;;;;;10.95;1.77;;;;;;;28.34;37.36;99263.16;1772154;81;21347;-81
2023/06/27 10:24:28;;;;;;;3.75;1.45;;;;;;;28.41;35.65;99269.17;1771785;81;21334;-81
2023/06/27 10:27:44;;;;;;;4.58;1.47;;;;;;;28.50;35.70;99265.85;1772301;81;21339;-82
2023/06/27 10:30:53;;;;;;;4.40;1.70;;;;;;;28.64;36.71;99248.32;1772767;81;21300;-80
2023/06/27 10:34:01;;;;;;;7.40;1.82;;;;;;;28.84;36.04;99261.00;1773063;81;21316;-80
2023/06/27 10:37:07;;;;;;;2.45;1.55;;;;;;;28.99;34.92;99269.67;1727875;82;21390;-81
2023/06/27 10:40:13;;;;;;;3.02;1.70;;;;;;;29.09;35.55;99268.55;1769296;80;21375;-81
2023/06/27 10:43:40;;;;;;;2.47;1.60;;;;;;;29.33;35.70;99268.98;1732809;82;21312;-81
2023/06/27 10:46:46;;;;;;;2.25;1.60;;;;;;;29.36;34.34;99270.30;1801005;79;21310;-81
2023/06/27 10:49:56;;;;;;;4.72;1.65;;;;;;;29.62;34.11;99272.66;1789558;79;21842;-81
2023/06/27 10:53:16;;;;;;;2.22;1.50;;;;;;;29.68;34.20;99274.73;1784856;79;21898;-81
2023/06/27 10:56:24;;;;;;;8.30;1.90;;;;;;;29.71;32.82;99274.91;1800764;79;21909;-81
2023/06/27 10:59:33;;;;;;;7.50;2.00;;;;;;;29.63;31.79;99270.66;1783132;79;21307;-81
2023/06/27 11:02:41;;;;;;;4.15;1.77;;;;;;;29.57;31.74;99275.63;1801998;79;21299;-81
2023/06/27 11:05:51;;;;;;;2.80;1.77;;;;;;;29.46;32.56;99270.84;1801881;79;21318;-80
2023/06/27 11:09:04;;;;;;;2.65;1.65;;;;;;;29.38;32.43;99279.27;1802602;79;21292;-80
2023/06/27 11:12:21;;;;;;;1.87;1.57;;;;;;;29.26;32.47;99280.70;1802665;79;21310;-81
2023/06/27 11:15:27;;;;;;;6.30;1.70;;;;;;;29.15;33.70;99275.11;1800825;79;21319;-81
2023/06/27 11:18:32;;;;;;;14.20;1.77;;;;;;;29.17;34.38;99277.05;1801117;79;21275;-80
2023/06/27 11:21:38;;;;;;;6.22;1.98;;;;;;;29.23;32.78;99270.10;1748627;81;22438;-80
2023/06/27 11:24:47;;;;;;;3.00;1.55;;;;;;;29.32;32.88;99273.53;1801066;79;21277;-80
2023/06/27 11:27:53;;;;;;;3.83;2.08;;;;;;;29.39;33.10;99276.69;1802231;79;21610;-81
2023/06/27 11:31:07;;;;;;;1.85;1.62;;;;;;;29.26;32.87;99275.64;1778434;79;21253;-80
2023/06/27 11:34:14;;;;;;;4.65;1.98;;;;;;;29.31;33.72;99276.08;1791738;79;21276;-80
2023/06/27 11:37:20;;;;;;;6.28;1.92;;;;;;;29.25;32.41;99266.95;1747792;81;21283;-80
2023/06/27 11:40:27;;;;;;;11.93;2.12;;;;;;;29.41;33.14;99274.40;1763296;79;21303;-80
2023/06/27 11:43:33;;;;;;;7.47;1.92;;;;;;;29.51;32.60;99272.11;1780230;79;21185;-81
2023/06/27 11:46:39;;;;;;;3.02;2.10;;;;;;;29.55;31.50;99273.73;1786949;79;21268;-80
2023/06/27 11:49:48;;;;;;;6.78;2.00;;;;;;;29.22;32.40;99275.48;1751616;81;21296;-80
2023/06/27 11:52:59;;;;;;;7.42;1.95;;;;;;;28.99;32.44;99280.34;1786155;79;21335;-81
2023/06/27 11:56:04;;;;;;;2.80;1.77;;;;;;;28.86;33.15;99266.34;1786675;79;21590;-80
2023/06/27 11:59:13;;;;;;;7.00;2.25;;;;;;;28.84;33.87;99262.41;1775490;79;21292;-81
2023/06/27 12:02:19;;;;;;;4.10;2.20;;;;;;;28.95;33.49;99268.65;1781127;79;21284;-80
2023/06/27 12:05:26;;;;;;;3.77;2.20;;;;;;;29.12;32.95;99261.67;1783843;79;21267;-80
2023/06/27 12:08:39;;;;;;;6.58;2.05;;;;;;;29.20;33.53;99262.30;1797230;80;21279;-80
2023/06/27 12:11:45;;;;;;;2.72;2.30;;;;;;;29.21;33.38;99266.77;1797830;80;21299;-81
2023/06/27 12:14:51;;;;;;;3.27;2.12;;;;;;;29.19;33.00;99260.64;1799387;79;21883;-81
2023/06/27 12:18:11;;;;;;;14.25;2.80;;;;;;;29.19;33.94;99262.05;1752158;81;22040;-80
2023/06/27 12:21:16;;;;;;;5.58;2.17;;;;;;;29.06;34.10;99271.42;1797761;79;21847;-81
2023/06/27 12:24:23;;;;;;;7.92;2.22;;;;;;;28.94;33.65;99272.59;1770842;81;21850;-81
2023/06/27 12:27:28;;;;;;;3.70;2.02;;;;;;;28.89;33.93;99263.71;1786583;79;21652;-81
2023/06/27 12:30:34;;;;;;;2.58;2.05;;;;;;;29.03;33.51;99268.70;1784000;79;21337;-81
2023/06/27 12:33:41;;;;;;;3.98;2.20;;;;;;;28.92;33.42;99276.29;1785839;80;21306;-81
2023/06/27 12:36:47;;;;;;;4.75;2.22;;;;;;;28.92;33.87;99269.25;1799517;79;21326;-80
2023/06/27 12:39:54;;;;;;;3.77;1.80;;;;;;;29.14;34.02;99268.41;1784619;79;21859;-81
2023/06/27 12:43:01;;;;;;;3.08;1.82;;;;;;;29.24;32.63;99274.57;1779014;80;21177;-81
2023/06/27 12:46:11;;;;;;;3.98;1.80;;;;;;;29.39;32.60;99256.98;1786827;80;21287;-81
2023/06/27 12:49:17;;;;;;;4.33;1.95;;;;;;;29.39;32.93;99271.89;1794844;80;21303;-81
2023/06/27 12:52:24;;;;;;;2.92;1.70;;;;;;;29.43;32.43;99270.66;1793713;80;21324;-80
2023/06/27 12:55:29;;;;;;;3.12;1.80;;;;;;;29.64;32.70;99269.50;1789169;80;21280;-80
2023/06/27 12:58:33;;;;;;;4.97;1.98;;;;;;;29.74;32.20;99272.86;1780879;80;21291;-80
2023/06/27 13:01:54;;;;;;;3.45;1.95;;;;;;;29.82;31.80;99263.32;1784746;80;21244;-81
2023/06/27 13:04:48;;;;;;;4.72;1.70;;;;;;;29.68;32.22;99269.09;1747528;81;21369;-81
2023/06/27 13:07:54;;;;;;;2.40;1.60;;;;;;;29.62;31.45;99271.24;1749342;81;21898;-81
2023/06/27 13:10:59;;;;;;;3.02;1.72;;;;;;;29.54;32.00;99273.42;1742492;82;21322;-80
2023/06/27 13:14:06;;;;;;;2.92;2.05;;;;;;;29.71;32.82;99278.31;1743731;82;21323;-81
2023/06/27 13:17:11;;;;;;;4.08;1.92;;;;;;;29.73;32.85;99276.81;1718049;82;21335;-80
2023/06/27 13:20:20;;;;;;;4.60;2.00;;;;;;;29.73;32.04;99266.12;1712524;83;21324;-81
2023/06/27 13:23:26;;;;;;;3.35;1.52;;;;;;;29.78;32.19;99273.86;1743738;82;21873;-79
2023/06/27 13:26:32;;;;;;;4.30;2.12;;;;;;;29.88;32.13;99286.81;1711662;81;21266;-80
2023/06/27 13:29:38;;;;;;;6.15;1.98;;;;;;;29.83;31.96;99281.88;1743883;82;21300;-80
2023/06/27 13:32:45;;;;;;;5.58;1.80;;;;;;;29.78;32.12;99280.05;1714954;83;21305;-80
2023/06/27 13:35:51;;;;;;;6.33;2.12;;;;;;;29.75;32.15;99280.73;1741752;82;21283;-80
2023/06/27 13:38:58;;;;;;;3.20;1.90;;;;;;;29.61;32.70;99275.22;1743198;82;21359;-81
2023/06/27 13:42:04;;;;;;;2.10;1.82;;;;;;;29.49;32.93;99279.20;1714923;83;21319;-80
2023/06/27 13:45:10;;;;;;;4.83;2.10;;;;;;;29.52;33.13;99265.89;1739258;82;21295;-80
2023/06/27 13:48:15;;;;;;;10.03;1.90;;;;;;;29.49;33.03;99276.39;1738903;82;21329;-81
2023/06/27 13:51:21;;;;;;;7.30;1.70;;;;;;;29.50;33.76;99275.23;1713378;83;21308;-81
2023/06/27 13:54:28;;;;;;;2.77;2.15;;;;;;;29.29;34.29;99275.00;1740868;82;21319;-80
2023/06/27 13:57:33;;;;;;;3.47;2.58;;;;;;;29.20;35.03;99276.37;1741562;82;21326;-82
2023/06/27 14:00:38;;;;;;;2.67;2.27;;;;;;;28.96;34.98;99279.58;1709235;83;21291;-80
2023/06/27 14:03:44;;;;;;;3.67;2.25;;;;;;;28.84;34.54;99272.84;1732536;82;21328;-80
2023/06/27 14:06:54;;;;;;;3.25;2.30;;;;;;;28.86;35.29;99269.98;1710323;82;21316;-82
2023/06/27 14:09:59;;;;;;;;;;;;;;;28.85;35.41;99268.90;1712466;84;21317;-81
2023/06/27 14:13:00;;;;;;;7.03;2.67;;;;;;;28.08;36.04;99267.14;1742273;82;20276;-80
2023/06/27 14:16:06;;;;;;;6.20;2.40;;;;;;;27.93;36.46;99264.13;1709612;82;21359;-80
2023/06/27 14:19:11;;;;;;;6.80;2.30;;;;;;;27.92;36.79;99263.88;1709537;83;21391;-81
2023/06/27 14:22:17;;;;;;;4.15;2.50;;;;;;;27.97;37.07;99263.75;1711037;83;21328;-80
2023/06/27 14:25:22;;;;;;;6.22;2.22;;;;;;;28.02;37.21;99265.03;1711059;84;21335;-80
2023/06/27 14:28:28;;;;;;;4.05;2.65;;;;;;;28.03;36.98;99273.14;1706919;84;21299;-80
2023/06/27 14:31:34;;;;;;;5.80;2.08;;;;;;;28.14;37.76;99267.30;1706141;84;21306;-82
2023/06/27 14:34:41;;;;;;;4.70;1.80;;;;;;;28.24;37.32;99274.91;1710679;84;22596;-80
2023/06/27 14:37:46;;;;;;;3.60;2.17;;;;;;;28.35;37.18;99271.29;1710458;84;21933;-81